Time;durP1;ratioP1;P1;durP2;ratioP2;P2;SDS_P1;SDS_P2;PMS_P1;PMS_P2;Temp;Humidity;BMP_temperature;BMP_pressure;BME280_temperature;BME280_humidity;BME280_pressure;Samples;Min_cycle;Max_cycle;Signal;HPM_P1;HPM_P2
2022/06/01 00:00:25;;;;;;;1.70;1.70;;;;;;;;;;5044083;28;20303;-59
2022/06/01 00:02:53;;;;;;;1.33;1.33;;;;;;;;;;5041655;28;20674;-59
2022/06/01 00:05:20;;;;;;;1.63;1.50;;;;;;;;;;5044828;28;20256;-60
2022/06/01 00:07:48;;;;;;;1.13;1.13;;;;;;;;;;5040402;28;20211;-59
2022/06/01 00:10:15;;;;;;;4.23;1.43;;;;;;;;;;5042127;28;20251;-60
2022/06/01 00:12:42;;;;;;;1.60;1.50;;;;;;;;;;5044058;28;20218;-60
2022/06/01 00:15:09;;;;;;;1.57;1.47;;;;;;;;;;5049979;28;20234;-60
2022/06/01 00:17:37;;;;;;;1.30;1.30;;;;;;;;;;5050519;28;20681;-60
2022/06/01 00:20:06;;;;;;;1.50;1.50;;;;;;;;;;5050300;28;20222;-60
2022/06/01 00:22:33;;;;;;;1.60;1.60;;;;;;;;;;5050470;28;20208;-59
2022/06/01 00:25:00;;;;;;;1.40;1.40;;;;;;;;;;5050010;28;20573;-59
2022/06/01 00:27:27;;;;;;;2.10;1.60;;;;;;;;;;5050148;28;20234;-59
2022/06/01 00:29:54;;;;;;;2.07;1.57;;;;;;;;;;5050256;28;20793;-59
2022/06/01 00:32:21;;;;;;;2.70;1.40;;;;;;;;;;5046957;28;20206;-59
2022/06/01 00:34:48;;;;;;;2.40;1.60;;;;;;;;;;5049853;28;20231;-59
2022/06/01 00:37:17;;;;;;;1.37;1.37;;;;;;;;;;5050164;28;20650;-59
2022/06/01 00:39:45;;;;;;;2.37;1.50;;;;;;;;;;5050291;28;20235;-59
2022/06/01 00:42:13;;;;;;;1.57;1.47;;;;;;;;;;5049846;28;20246;-58
2022/06/01 00:44:40;;;;;;;1.20;1.20;;;;;;;;;;5049284;28;20192;-58
2022/06/01 00:47:08;;;;;;;1.60;1.60;;;;;;;;;;5050246;28;20221;-58
2022/06/01 00:49:36;;;;;;;1.50;1.40;;;;;;;;;;5049881;28;20216;-58
2022/06/01 00:52:04;;;;;;;1.33;1.33;;;;;;;;;;5050397;28;20212;-59
2022/06/01 00:54:32;;;;;;;2.70;1.90;;;;;;;;;;5049335;28;20656;-58
2022/06/01 00:57:02;;;;;;;1.60;1.50;;;;;;;;;;5050341;28;20212;-58
2022/06/01 00:59:33;;;;;;;1.67;1.57;;;;;;;;;;5049569;28;20203;-58
2022/06/01 01:02:02;;;;;;;1.63;1.53;;;;;;;;;;5050450;28;20306;-58
2022/06/01 01:04:31;;;;;;;1.43;1.37;;;;;;;;;;5049430;28;20231;-58
2022/06/01 01:06:59;;;;;;;1.30;1.30;;;;;;;;;;5049478;28;20808;-58
2022/06/01 01:09:26;;;;;;;1.40;1.33;;;;;;;;;;5048109;28;20239;-58
2022/06/01 01:11:56;;;;;;;1.97;1.80;;;;;;;;;;5048120;28;20216;-58
2022/06/01 01:14:25;;;;;;;1.67;1.53;;;;;;;;;;5047659;28;20228;-59
2022/06/01 01:16:52;;;;;;;1.10;1.10;;;;;;;;;;5045282;28;20294;-58
2022/06/01 01:19:23;;;;;;;1.80;1.70;;;;;;;;;;5048257;28;20211;-58
2022/06/01 01:21:57;;;;;;;1.93;1.20;;;;;;;;;;5047222;28;20210;-59
2022/06/01 01:24:27;;;;;;;2.23;1.17;;;;;;;;;;5048132;28;20298;-58
2022/06/01 01:26:57;;;;;;;2.10;1.50;;;;;;;;;;5046960;28;20235;-58
2022/06/01 01:29:31;;;;;;;1.30;1.20;;;;;;;;;;5047697;28;20748;-59
2022/06/01 01:31:59;;;;;;;2.73;1.60;;;;;;;;;;5048625;28;20222;-59
2022/06/01 01:34:26;;;;;;;1.40;1.30;;;;;;;;;;5049366;28;20314;-58
2022/06/01 01:36:56;;;;;;;1.47;1.47;;;;;;;;;;5048981;28;20211;-58
2022/06/01 01:39:24;;;;;;;1.40;1.30;;;;;;;;;;5049749;28;20235;-58
2022/06/01 01:41:52;;;;;;;1.60;1.47;;;;;;;;;;5048860;28;20212;-59
2022/06/01 01:44:22;;;;;;;1.37;1.23;;;;;;;;;;5049040;28;20609;-58
2022/06/01 01:46:50;;;;;;;1.60;1.53;;;;;;;;;;5049256;28;20210;-60
2022/06/01 01:49:17;;;;;;;1.43;1.27;;;;;;;;;;5049309;28;20208;-59
2022/06/01 01:51:44;;;;;;;1.40;1.40;;;;;;;;;;5048803;28;20286;-59
2022/06/01 01:54:17;;;;;;;1.20;1.20;;;;;;;;;;5048804;28;20223;-59
2022/06/01 01:57:03;;;;;;;1.30;1.30;;;;;;;;;;5048955;28;20673;-58
2022/06/01 01:59:38;;;;;;;1.40;1.40;;;;;;;;;;5048510;28;20207;-59
2022/06/01 02:02:08;;;;;;;1.60;1.60;;;;;;;;;;5048975;28;20203;-59
2022/06/01 02:07:26;;;;;;;1.63;1.47;;;;;;;;;;5049027;28;20202;-59
2022/06/01 02:12:44;;;;;;;1.50;1.40;;;;;;;;;;5048558;28;20308;-59
2022/06/01 02:15:15;;;;;;;1.30;1.30;;;;;;;;;;5045137;28;20235;-59
2022/06/01 02:17:48;;;;;;;2.03;1.43;;;;;;;;;;5048666;28;20214;-57
2022/06/01 02:20:18;;;;;;;2.13;2.03;;;;;;;;;;5048256;28;20203;-58
2022/06/01 02:22:45;;;;;;;1.93;1.83;;;;;;;;;;5047953;28;20682;-58
2022/06/01 02:25:13;;;;;;;1.27;1.27;;;;;;;;;;5047491;28;20196;-58
2022/06/01 02:27:41;;;;;;;1.63;1.53;;;;;;;;;;5047499;28;20227;-58
2022/06/01 02:30:11;;;;;;;1.30;1.20;;;;;;;;;;5047588;28;20208;-58
2022/06/01 02:32:40;;;;;;;1.77;1.70;;;;;;;;;;5041554;28;20219;-58
2022/06/01 02:35:08;;;;;;;1.57;1.57;;;;;;;;;;5030675;28;20967;-58
2022/06/01 02:37:36;;;;;;;1.40;1.40;;;;;;;;;;5036369;28;20206;-57
2022/06/01 02:40:05;;;;;;;1.53;1.40;;;;;;;;;;5047659;28;20222;-58
2022/06/01 02:42:33;;;;;;;1.50;1.50;;;;;;;;;;5047754;28;20215;-58
2022/06/01 02:45:01;;;;;;;1.60;1.50;;;;;;;;;;5047492;28;20242;-58
2022/06/01 02:47:30;;;;;;;1.70;1.60;;;;;;;;;;5047217;28;20207;-58
2022/06/01 02:49:59;;;;;;;1.53;1.53;;;;;;;;;;5047794;28;20214;-58
2022/06/01 02:52:27;;;;;;;1.97;1.70;;;;;;;;;;5047205;28;20558;-58
2022/06/01 02:54:54;;;;;;;1.30;1.30;;;;;;;;;;5047367;28;20234;-58
2022/06/01 02:57:21;;;;;;;2.03;2.00;;;;;;;;;;5047111;28;20436;-58
2022/06/01 02:59:49;;;;;;;1.70;1.70;;;;;;;;;;5047441;28;20234;-58
2022/06/01 03:02:16;;;;;;;1.93;1.53;;;;;;;;;;5047705;28;20281;-58
2022/06/01 03:04:44;;;;;;;1.37;1.37;;;;;;;;;;5050326;28;20714;-58
2022/06/01 03:07:12;;;;;;;1.60;1.60;;;;;;;;;;5052018;28;20208;-58
2022/06/01 03:09:39;;;;;;;1.70;1.53;;;;;;;;;;5051870;28;20207;-58
2022/06/01 03:12:09;;;;;;;1.57;1.40;;;;;;;;;;5051748;28;20270;-58
2022/06/01 03:14:37;;;;;;;1.30;1.30;;;;;;;;;;5051054;28;20228;-58
2022/06/01 03:17:04;;;;;;;1.47;1.47;;;;;;;;;;5051606;28;20230;-58
2022/06/01 03:19:31;;;;;;;1.50;1.50;;;;;;;;;;5051978;28;20669;-58
2022/06/01 03:21:58;;;;;;;2.53;1.30;;;;;;;;;;5051609;28;20208;-58
2022/06/01 03:24:27;;;;;;;1.33;1.30;;;;;;;;;;5051588;28;20195;-57
2022/06/01 03:26:54;;;;;;;1.73;1.73;;;;;;;;;;5051207;28;20289;-57
2022/06/01 03:29:21;;;;;;;1.40;1.40;;;;;;;;;;5051507;28;20211;-57
2022/06/01 03:31:50;;;;;;;1.47;1.37;;;;;;;;;;5051278;28;20230;-58
2022/06/01 03:34:17;;;;;;;1.83;1.53;;;;;;;;;;5051388;28;20255;-58
2022/06/01 03:36:44;;;;;;;2.10;2.00;;;;;;;;;;5051159;28;20195;-57
2022/06/01 03:39:11;;;;;;;1.60;1.60;;;;;;;;;;5051343;28;20208;-58
2022/06/01 03:41:39;;;;;;;4.73;1.50;;;;;;;;;;5050864;28;20207;-58
2022/06/01 03:46:52;;;;;;;2.10;1.37;;;;;;;;;;5051241;28;20248;-58
2022/06/01 03:49:19;;;;;;;1.63;1.37;;;;;;;;;;5051006;28;20295;-58
2022/06/01 03:51:47;;;;;;;1.20;1.20;;;;;;;;;;5051253;28;20230;-57
2022/06/01 03:54:15;;;;;;;1.50;1.50;;;;;;;;;;5051230;28;20210;-58
2022/06/01 03:56:45;;;;;;;1.70;1.67;;;;;;;;;;5050001;28;20286;-58
2022/06/01 03:59:12;;;;;;;1.57;1.47;;;;;;;;;;5050795;28;20326;-58
2022/06/01 04:01:39;;;;;;;1.73;1.37;;;;;;;;;;5050105;28;20913;-57
2022/06/01 04:04:06;;;;;;;1.83;1.70;;;;;;;;;;5051038;28;20207;-58
2022/06/01 04:06:33;;;;;;;1.60;1.50;;;;;;;;;;5050655;28;20261;-58
2022/06/01 04:09:00;;;;;;;1.13;1.13;;;;;;;;;;5050726;28;20662;-57
2022/06/01 04:11:27;;;;;;;1.40;1.40;;;;;;;;;;5050932;28;20226;-57
2022/06/01 04:13:56;;;;;;;1.20;1.20;;;;;;;;;;5050549;28;20200;-58
2022/06/01 04:16:23;;;;;;;1.70;1.60;;;;;;;;;;5049459;28;20232;-57
2022/06/01 04:18:50;;;;;;;1.70;1.70;;;;;;;;;;5049333;28;20208;-58
2022/06/01 04:21:20;;;;;;;1.50;1.50;;;;;;;;;;5050831;28;20211;-57
2022/06/01 04:23:47;;;;;;;1.50;1.40;;;;;;;;;;5050986;28;20204;-58
2022/06/01 04:26:16;;;;;;;1.40;1.40;;;;;;;;;;5050550;28;20354;-57
2022/06/01 04:28:43;;;;;;;1.77;1.77;;;;;;;;;;5042682;28;20261;-58
2022/06/01 04:31:11;;;;;;;1.33;1.33;;;;;;;;;;5050300;28;20211;-58
2022/06/01 04:33:39;;;;;;;1.50;1.50;;;;;;;;;;5050547;28;20689;-57
2022/06/01 04:36:06;;;;;;;1.30;1.30;;;;;;;;;;5050271;28;20326;-57
2022/06/01 04:38:33;;;;;;;1.50;1.50;;;;;;;;;;5047352;28;20211;-58
2022/06/01 04:41:00;;;;;;;1.60;1.60;;;;;;;;;;5045707;28;20203;-57
2022/06/01 04:43:27;;;;;;;1.87;1.77;;;;;;;;;;5050013;28;20216;-58
2022/06/01 04:45:56;;;;;;;1.47;1.37;;;;;;;;;;5038652;28;20570;-57
2022/06/01 04:48:25;;;;;;;1.60;1.60;;;;;;;;;;5050333;28;20207;-58
2022/06/01 04:50:53;;;;;;;1.27;1.27;;;;;;;;;;5050156;28;20626;-60
2022/06/01 04:53:20;;;;;;;1.80;1.70;;;;;;;;;;5050426;28;20269;-58
2022/06/01 04:55:47;;;;;;;2.30;1.60;;;;;;;;;;5050258;28;20227;-58
2022/06/01 04:58:15;;;;;;;1.60;1.60;;;;;;;;;;5049821;28;20204;-58
2022/06/01 05:00:46;;;;;;;2.50;1.40;;;;;;;;;;5049564;28;20208;-59
2022/06/01 05:03:14;;;;;;;1.50;1.50;;;;;;;;;;5049372;28;20212;-58
2022/06/01 05:05:42;;;;;;;1.87;1.77;;;;;;;;;;5048916;28;20207;-58
2022/06/01 05:08:11;;;;;;;1.52;1.33;;;;;;;;;;5048368;28;20609;-57
2022/06/01 05:10:38;;;;;;;1.48;1.48;;;;;;;;;;5039097;28;20199;-59
2022/06/01 05:13:05;;;;;;;2.17;2.07;;;;;;;;;;5048613;28;20219;-59
2022/06/01 05:15:32;;;;;;;2.00;1.90;;;;;;;;;;5048827;28;20220;-59
2022/06/01 05:17:59;;;;;;;1.25;1.23;;;;;;;;;;5049077;28;20203;-59
2022/06/01 05:20:26;;;;;;;1.60;1.60;;;;;;;;;;5048656;28;20200;-59
2022/06/01 05:22:55;;;;;;;1.75;1.75;;;;;;;;;;5048588;28;20219;-59
2022/06/01 05:25:22;;;;;;;1.85;1.75;;;;;;;;;;5048072;28;20232;-59
2022/06/01 05:27:50;;;;;;;1.42;1.42;;;;;;;;;;5047762;28;20676;-62
2022/06/01 05:30:17;;;;;;;1.52;1.50;;;;;;;;;;5048754;28;20203;-59
2022/06/01 05:32:44;;;;;;;1.40;1.40;;;;;;;;;;5048597;28;20204;-59
2022/06/01 05:35:11;;;;;;;1.65;1.63;;;;;;;;;;5048247;28;20555;-59
2022/06/01 05:37:38;;;;;;;1.92;1.83;;;;;;;;;;5046306;28;20203;-59
2022/06/01 05:40:07;;;;;;;2.40;2.30;;;;;;;;;;5039709;28;20200;-59
2022/06/01 05:42:34;;;;;;;2.20;2.00;;;;;;;;;;5038679;28;20223;-59
2022/06/01 05:45:01;;;;;;;2.13;1.95;;;;;;;;;;5047717;28;20207;-60
2022/06/01 05:47:28;;;;;;;1.92;1.92;;;;;;;;;;5048086;28;20584;-60
2022/06/01 05:49:56;;;;;;;2.90;1.83;;;;;;;;;;5048160;28;20267;-60
2022/06/01 05:52:23;;;;;;;2.42;2.30;;;;;;;;;;5046302;28;20216;-60
2022/06/01 05:54:50;;;;;;;5.28;1.60;;;;;;;;;;5046914;28;20216;-59
2022/06/01 05:57:18;;;;;;;1.67;1.67;;;;;;;;;;5048597;28;20247;-59
2022/06/01 05:59:45;;;;;;;1.92;1.75;;;;;;;;;;5048621;28;20219;-58
2022/06/01 06:02:12;;;;;;;1.75;1.70;;;;;;;;;;5048179;28;20215;-59
2022/06/01 06:04:39;;;;;;;1.25;1.25;;;;;;;;;;5041386;28;20284;-59
2022/06/01 06:07:06;;;;;;;1.95;1.55;;;;;;;;;;5035798;28;20704;-58
2022/06/01 06:09:34;;;;;;;1.95;1.85;;;;;;;;;;5044509;28;20213;-60
2022/06/01 06:12:01;;;;;;;1.80;1.70;;;;;;;;;;5044193;28;20277;-59
2022/06/01 06:14:30;;;;;;;2.03;1.98;;;;;;;;;;5028235;28;20219;-59
2022/06/01 06:16:57;;;;;;;1.88;1.70;;;;;;;;;;5027827;28;20255;-59
2022/06/01 06:19:24;;;;;;;1.85;1.75;;;;;;;;;;5042314;28;20216;-59
2022/06/01 06:21:51;;;;;;;2.05;1.95;;;;;;;;;;5046907;28;20211;-59
2022/06/01 06:24:19;;;;;;;1.98;1.85;;;;;;;;;;5047877;28;20207;-59
2022/06/01 06:26:47;;;;;;;2.03;1.92;;;;;;;;;;5047664;28;20717;-59
2022/06/01 06:29:15;;;;;;;1.67;1.67;;;;;;;;;;5047720;28;20215;-62
2022/06/01 06:31:44;;;;;;;1.73;1.73;;;;;;;;;;5038972;28;20633;-61
2022/06/01 06:34:11;;;;;;;2.38;2.17;;;;;;;;;;5042423;28;20219;-60
2022/06/01 06:36:38;;;;;;;1.73;1.73;;;;;;;;;;5047191;28;20835;-60
2022/06/01 06:39:05;;;;;;;2.03;2.03;;;;;;;;;;5047320;28;20207;-60
2022/06/01 06:41:32;;;;;;;1.70;1.70;;;;;;;;;;5047463;28;20591;-60
2022/06/01 06:44:00;;;;;;;1.73;1.55;;;;;;;;;;5047752;28;20708;-60
2022/06/01 06:46:27;;;;;;;1.58;1.58;;;;;;;;;;5047840;28;20211;-59
2022/06/01 06:48:56;;;;;;;1.77;1.67;;;;;;;;;;5040639;28;20235;-59
2022/06/01 06:51:25;;;;;;;1.63;1.63;;;;;;;;;;5027629;28;20208;-60
2022/06/01 06:53:52;;;;;;;1.88;1.80;;;;;;;;;;5027809;28;20204;-64
2022/06/01 06:56:20;;;;;;;2.05;1.50;;;;;;;;;;5027779;28;20231;-60
2022/06/01 06:58:47;;;;;;;2.00;1.67;;;;;;;;;;5027814;28;20208;-60
2022/06/01 07:01:14;;;;;;;1.20;1.20;;;;;;;;;;5027876;28;20223;-59
2022/06/01 07:03:41;;;;;;;1.88;1.75;;;;;;;;;;5027529;28;20212;-60
2022/06/01 07:06:11;;;;;;;1.30;1.30;;;;;;;;;;5027518;28;20208;-59
2022/06/01 07:08:39;;;;;;;1.83;1.73;;;;;;;;;;5027534;28;20216;-59
2022/06/01 07:11:06;;;;;;;1.35;1.27;;;;;;;;;;5027669;28;20634;-59
2022/06/01 07:13:33;;;;;;;1.13;1.13;;;;;;;;;;5045605;28;20310;-59
2022/06/01 07:16:05;;;;;;;1.33;1.33;;;;;;;;;;5047503;28;20230;-60
2022/06/01 07:18:32;;;;;;;2.38;1.60;;;;;;;;;;5047568;28;20666;-60
2022/06/01 07:20:59;;;;;;;1.15;1.10;;;;;;;;;;5047412;28;20616;-59
2022/06/01 07:23:28;;;;;;;1.50;1.50;;;;;;;;;;5047052;28;20215;-59
2022/06/01 07:25:55;;;;;;;1.30;1.30;;;;;;;;;;5046881;28;20235;-60
2022/06/01 07:28:23;;;;;;;1.10;1.10;;;;;;;;;;5047226;28;20683;-60
2022/06/01 07:30:50;;;;;;;1.30;1.30;;;;;;;;;;5046760;28;20230;-59
2022/06/01 07:33:17;;;;;;;1.30;1.20;;;;;;;;;;5047220;28;21068;-60
2022/06/01 07:35:44;;;;;;;1.40;1.30;;;;;;;;;;5047014;28;20717;-60
2022/06/01 07:43:43;;;;;;;1.10;1.10;;;;;;;;;;5046160;28;20222;-60
2022/06/01 07:46:10;;;;;;;1.92;1.00;;;;;;;;;;5046865;28;20219;-60
2022/06/01 07:48:38;;;;;;;3.25;1.27;;;;;;;;;;5046568;28;20724;-60
2022/06/01 07:51:05;;;;;;;0.98;0.98;;;;;;;;;;5048792;28;20235;-60
2022/06/01 07:53:32;;;;;;;1.20;1.00;;;;;;;;;;5050867;28;20208;-60
2022/06/01 07:56:01;;;;;;;1.00;1.00;;;;;;;;;;5050808;28;20242;-60
2022/06/01 07:58:28;;;;;;;0.98;0.98;;;;;;;;;;5050351;28;20676;-60
2022/06/01 08:00:55;;;;;;;0.73;0.73;;;;;;;;;;5050470;28;20212;-60
2022/06/01 08:03:22;;;;;;;2.45;0.88;;;;;;;;;;5050415;28;20847;-61
2022/06/01 08:05:49;;;;;;;0.90;0.90;;;;;;;;;;5036686;28;20208;-60
2022/06/01 08:08:16;;;;;;;1.63;1.00;;;;;;;;;;5030632;28;20932;-60
2022/06/01 08:10:43;;;;;;;1.00;1.00;;;;;;;;;;5030510;28;20701;-60
2022/06/01 08:13:12;;;;;;;0.70;0.70;;;;;;;;;;5045256;28;20233;-60
2022/06/01 08:15:41;;;;;;;0.80;0.80;;;;;;;;;;5050411;28;20211;-60
2022/06/01 08:18:08;;;;;;;0.75;0.75;;;;;;;;;;5050419;28;20246;-61
2022/06/01 08:20:35;;;;;;;0.90;0.70;;;;;;;;;;5049942;28;20211;-60
2022/06/01 08:23:02;;;;;;;1.25;1.20;;;;;;;;;;5049971;28;20215;-61
2022/06/01 08:25:30;;;;;;;1.33;1.02;;;;;;;;;;5049811;28;20239;-61
2022/06/01 08:27:57;;;;;;;1.00;1.00;;;;;;;;;;5049975;28;20207;-60
2022/06/01 08:30:26;;;;;;;0.73;0.73;;;;;;;;;;5049913;28;20208;-60
2022/06/01 08:32:54;;;;;;;0.80;0.80;;;;;;;;;;5049864;28;20219;-61
2022/06/01 08:35:23;;;;;;;0.80;0.80;;;;;;;;;;5047657;28;20211;-60
2022/06/01 08:37:50;;;;;;;0.88;0.88;;;;;;;;;;5049478;28;20262;-59
2022/06/01 08:40:19;;;;;;;0.80;0.80;;;;;;;;;;5049748;28;20224;-59
2022/06/01 08:42:55;;;;;;;0.70;0.70;;;;;;;;;;5049776;28;20438;-58
2022/06/01 08:45:24;;;;;;;2.78;0.80;;;;;;;;;;5049642;28;20243;-59
2022/06/01 08:47:52;;;;;;;0.77;0.77;;;;;;;;;;5049102;28;20304;-59
2022/06/01 08:50:23;;;;;;;4.20;0.50;;;;;;;;;;5047503;28;20206;-59
2022/06/01 08:52:50;;;;;;;0.50;0.47;;;;;;;;;;5049324;28;20257;-59
2022/06/01 08:55:17;;;;;;;0.60;0.60;;;;;;;;;;5049276;28;20219;-59
2022/06/01 08:57:47;;;;;;;0.40;0.40;;;;;;;;;;5049180;28;20307;-59
2022/06/01 09:00:16;;;;;;;0.35;0.35;;;;;;;;;;5048527;28;20230;-59
2022/06/01 09:02:47;;;;;;;0.30;0.30;;;;;;;;;;5047993;28;20203;-60
2022/06/01 09:05:19;;;;;;;0.40;0.40;;;;;;;;;;5046485;28;20210;-59
2022/06/01 09:07:49;;;;;;;1.38;0.40;;;;;;;;;;5049057;28;20424;-61
2022/06/01 09:10:21;;;;;;;0.40;0.40;;;;;;;;;;5048930;28;20214;-61
2022/06/01 09:12:49;;;;;;;0.40;0.40;;;;;;;;;;5047917;28;20204;-65
2022/06/01 09:15:18;;;;;;;1.75;0.40;;;;;;;;;;5048917;28;20219;-60
2022/06/01 09:17:45;;;;;;;0.55;0.50;;;;;;;;;;5048438;28;20273;-60
2022/06/01 09:23:01;;;;;;;0.35;0.35;;;;;;;;;;5047827;28;20210;-61
2022/06/01 09:25:32;;;;;;;0.30;0.30;;;;;;;;;;5036649;28;20241;-58
2022/06/01 09:28:00;;;;;;;0.30;0.30;;;;;;;;;;5048273;28;20215;-58
2022/06/01 09:30:33;;;;;;;0.32;0.32;;;;;;;;;;5046438;28;20207;-59
2022/06/01 09:33:02;;;;;;;0.50;0.40;;;;;;;;;;5048129;28;20652;-59
2022/06/01 09:35:30;;;;;;;0.30;0.30;;;;;;;;;;5047717;28;20696;-59
2022/06/01 09:37:57;;;;;;;2.85;0.50;;;;;;;;;;5048460;28;20231;-59
2022/06/01 09:40:27;;;;;;;0.20;0.20;;;;;;;;;;5048050;28;20203;-59
2022/06/01 09:42:55;;;;;;;0.73;0.40;;;;;;;;;;5047536;28;20208;-60
2022/06/01 09:45:26;;;;;;;0.35;0.35;;;;;;;;;;5048160;28;20208;-60
2022/06/01 09:47:54;;;;;;;0.38;0.38;;;;;;;;;;5034471;28;20204;-60
2022/06/01 09:50:23;;;;;;;1.30;0.40;;;;;;;;;;5047538;28;20219;-60
2022/06/01 09:52:50;;;;;;;0.30;0.30;;;;;;;;;;5047721;28;20215;-60
2022/06/01 09:55:19;;;;;;;0.40;0.40;;;;;;;;;;5047567;28;20223;-60
2022/06/01 09:57:57;;;;;;;0.50;0.50;;;;;;;;;;5047645;28;20739;-59
2022/06/01 10:06:09;;;;;;;0.47;0.47;;;;;;;;;;5047596;28;20246;-59
2022/06/01 10:08:42;;;;;;;0.30;0.30;;;;;;;;;;5047064;28;20211;-60
2022/06/01 10:11:14;;;;;;;0.50;0.50;;;;;;;;;;5046928;28;20339;-59
2022/06/01 10:13:53;;;;;;;0.30;0.30;;;;;;;;;;5046847;28;20302;-60
2022/06/01 10:16:24;;;;;;;0.40;0.40;;;;;;;;;;5047092;28;20281;-60
2022/06/01 10:18:52;;;;;;;1.13;0.20;;;;;;;;;;5047325;28;20591;-60
2022/06/01 10:21:22;;;;;;;0.30;0.30;;;;;;;;;;5046906;28;20617;-60
2022/06/01 10:23:52;;;;;;;0.30;0.30;;;;;;;;;;5047153;28;20550;-60
2022/06/01 10:26:22;;;;;;;0.50;0.50;;;;;;;;;;5046536;28;20242;-60
2022/06/01 10:28:53;;;;;;;0.50;0.38;;;;;;;;;;5046973;28;20222;-60
2022/06/01 10:31:26;;;;;;;0.45;0.40;;;;;;;;;;5046982;28;20254;-60
2022/06/01 10:33:56;;;;;;;0.90;0.40;;;;;;;;;;5046828;28;20219;-61
2022/06/01 10:36:38;;;;;;;0.55;0.40;;;;;;;;;;5046653;28;20235;-60
2022/06/01 10:39:07;;;;;;;0.45;0.43;;;;;;;;;;5037966;28;20687;-60
2022/06/01 10:41:38;;;;;;;0.45;0.30;;;;;;;;;;5028855;28;20212;-61
2022/06/01 10:44:11;;;;;;;1.35;0.40;;;;;;;;;;5046955;28;20953;-60
2022/06/01 10:46:42;;;;;;;0.75;0.40;;;;;;;;;;5046103;28;20484;-60
2022/06/01 10:49:17;;;;;;;0.43;0.28;;;;;;;;;;5046971;28;20314;-60
2022/06/01 10:51:45;;;;;;;0.43;0.43;;;;;;;;;;5047273;28;20207;-60
2022/06/01 10:54:25;;;;;;;0.30;0.30;;;;;;;;;;5046415;28;20207;-60
2022/06/01 10:56:52;;;;;;;0.38;0.38;;;;;;;;;;5046800;28;20364;-60
2022/06/01 10:59:21;;;;;;;1.20;0.45;;;;;;;;;;5030495;28;20216;-60
2022/06/01 11:01:55;;;;;;;0.40;0.40;;;;;;;;;;5039440;28;20982;-60
2022/06/01 11:04:37;;;;;;;0.40;0.40;;;;;;;;;;5046660;28;20708;-60
2022/06/01 11:07:22;;;;;;;0.30;0.30;;;;;;;;;;5044732;28;20568;-60
2022/06/01 11:09:55;;;;;;;0.40;0.40;;;;;;;;;;5043291;28;20211;-60
2022/06/01 11:12:29;;;;;;;0.45;0.45;;;;;;;;;;5026450;28;20214;-60
2022/06/01 11:15:03;;;;;;;0.30;0.30;;;;;;;;;;5044966;28;20666;-60
2022/06/01 11:17:34;;;;;;;2.60;0.45;;;;;;;;;;5046672;28;20231;-60
2022/06/01 11:20:09;;;;;;;0.40;0.40;;;;;;;;;;5045043;28;20234;-60
2022/06/01 11:22:47;;;;;;;1.10;0.40;;;;;;;;;;5027624;28;20216;-58
2022/06/01 11:25:19;;;;;;;0.40;0.28;;;;;;;;;;5041198;28;20215;-58
2022/06/01 11:28:00;;;;;;;0.35;0.35;;;;;;;;;;5046745;28;20713;-58
2022/06/01 11:30:34;;;;;;;0.30;0.30;;;;;;;;;;5042571;28;20219;-58
2022/06/01 11:33:03;;;;;;;0.30;0.30;;;;;;;;;;5046312;28;20200;-58
2022/06/01 11:35:34;;;;;;;1.35;0.30;;;;;;;;;;5046839;28;20204;-57
2022/06/01 11:38:03;;;;;;;1.95;0.38;;;;;;;;;;5033714;28;20239;-57
2022/06/01 11:40:38;;;;;;;0.30;0.30;;;;;;;;;;5046535;28;20238;-57
2022/06/01 11:43:07;;;;;;;0.40;0.40;;;;;;;;;;5045618;28;20207;-61
2022/06/01 11:45:37;;;;;;;0.38;0.38;;;;;;;;;;5045890;28;20220;-58
2022/06/01 11:48:07;;;;;;;0.30;0.30;;;;;;;;;;5045239;28;20207;-58
2022/06/01 11:50:48;;;;;;;0.30;0.25;;;;;;;;;;5046225;28;20693;-59
2022/06/01 11:53:21;;;;;;;2.13;0.30;;;;;;;;;;5046105;28;20218;-60
2022/06/01 11:55:49;;;;;;;0.65;0.40;;;;;;;;;;5046372;28;20203;-61
2022/06/01 11:58:22;;;;;;;0.40;0.40;;;;;;;;;;5046775;28;20772;-60
2022/06/01 12:00:58;;;;;;;0.30;0.30;;;;;;;;;;5045965;28;20295;-59
2022/06/01 12:45:56;;;;;;;0.50;0.50;;;;;;;;;;5061049;28;21065;-59
2022/06/01 12:48:24;;;;;;;0.60;0.40;;;;;;;;;;5053105;28;20215;-59
2022/06/01 12:50:53;;;;;;;0.20;0.20;;;;;;;;;;5039214;28;20753;-59
2022/06/01 12:53:22;;;;;;;0.30;0.30;;;;;;;;;;5041715;28;20207;-59
2022/06/01 12:56:03;;;;;;;0.47;0.47;;;;;;;;;;5041535;28;20501;-60
2022/06/01 12:58:30;;;;;;;0.20;0.20;;;;;;;;;;5041271;28;20276;-60
2022/06/01 13:00:59;;;;;;;1.08;0.40;;;;;;;;;;5041715;28;20260;-60
2022/06/01 13:03:33;;;;;;;0.30;0.30;;;;;;;;;;5050624;28;20215;-60
2022/06/01 13:06:02;;;;;;;0.30;0.30;;;;;;;;;;5041424;28;20258;-59
2022/06/01 13:08:32;;;;;;;0.30;0.30;;;;;;;;;;5040478;28;20261;-60
2022/06/01 13:11:12;;;;;;;0.40;0.40;;;;;;;;;;5047825;28;20900;-59
2022/06/01 13:13:39;;;;;;;0.38;0.32;;;;;;;;;;5051762;28;20520;-57
2022/06/01 13:16:08;;;;;;;0.20;0.20;;;;;;;;;;5038660;27;20216;-57
2022/06/01 13:18:38;;;;;;;0.28;0.25;;;;;;;;;;5041916;27;20642;-59
2022/06/01 13:21:08;;;;;;;0.52;0.30;;;;;;;;;;5036567;28;20208;-62
2022/06/01 13:23:42;;;;;;;0.40;0.28;;;;;;;;;;5039013;28;20281;-59
2022/06/01 13:26:11;;;;;;;0.25;0.25;;;;;;;;;;5042939;28;20537;-58
2022/06/01 13:28:38;;;;;;;0.30;0.30;;;;;;;;;;5050210;27;20257;-59
2022/06/01 13:31:06;;;;;;;0.63;0.43;;;;;;;;;;5041373;28;20949;-59
2022/06/01 13:33:38;;;;;;;0.40;0.40;;;;;;;;;;5040966;28;20200;-59
2022/06/01 13:36:07;;;;;;;0.40;0.40;;;;;;;;;;5041786;27;20228;-61
2022/06/01 13:38:36;;;;;;;0.25;0.25;;;;;;;;;;5040754;28;20295;-58
2022/06/01 13:41:04;;;;;;;0.20;0.20;;;;;;;;;;5040476;28;20216;-59
2022/06/01 13:43:40;;;;;;;0.30;0.30;;;;;;;;;;5040275;28;20265;-58
2022/06/01 13:46:08;;;;;;;0.20;0.20;;;;;;;;;;5031440;28;20208;-59
2022/06/01 13:48:39;;;;;;;0.30;0.22;;;;;;;;;;5026947;28;20592;-59
2022/06/01 13:51:12;;;;;;;0.38;0.38;;;;;;;;;;5027363;28;20239;-59
2022/06/01 13:53:42;;;;;;;0.30;0.30;;;;;;;;;;5027433;28;20674;-58
2022/06/01 13:56:22;;;;;;;0.30;0.30;;;;;;;;;;5038739;28;20289;-59
2022/06/01 13:59:00;;;;;;;0.40;0.40;;;;;;;;;;5027814;28;20216;-59
2022/06/01 14:01:35;;;;;;;1.10;0.40;;;;;;;;;;5028637;27;20678;-59
2022/06/01 14:04:12;;;;;;;0.30;0.30;;;;;;;;;;5052647;27;20211;-59
2022/06/01 14:06:41;;;;;;;0.30;0.30;;;;;;;;;;5052551;27;20204;-59
2022/06/01 14:09:09;;;;;;;0.35;0.35;;;;;;;;;;5050188;27;20209;-64
2022/06/01 14:11:36;;;;;;;0.30;0.30;;;;;;;;;;5031444;28;20208;-59
2022/06/01 14:14:05;;;;;;;0.65;0.50;;;;;;;;;;5022977;28;20232;-59
2022/06/01 14:16:33;;;;;;;0.43;0.30;;;;;;;;;;5021889;28;20232;-60
2022/06/01 14:19:00;;;;;;;0.40;0.40;;;;;;;;;;5033623;27;20626;-59
2022/06/01 14:21:29;;;;;;;0.30;0.30;;;;;;;;;;5078350;27;20216;-59
2022/06/01 14:23:56;;;;;;;0.32;0.32;;;;;;;;;;5022631;28;20664;-59
2022/06/01 14:29:08;;;;;;;0.30;0.30;;;;;;;;;;5022806;28;20211;-60
2022/06/01 14:31:37;;;;;;;0.20;0.20;;;;;;;;;;5023156;28;20299;-60
2022/06/01 14:34:07;;;;;;;0.30;0.30;;;;;;;;;;5022971;28;20632;-60
2022/06/01 14:36:36;;;;;;;0.20;0.20;;;;;;;;;;5022566;28;20224;-60
2022/06/01 14:39:03;;;;;;;0.38;0.30;;;;;;;;;;5021814;28;20698;-60
2022/06/01 14:41:31;;;;;;;0.20;0.20;;;;;;;;;;5021707;28;20216;-60
2022/06/01 14:44:00;;;;;;;0.40;0.40;;;;;;;;;;5036922;28;20240;-59
2022/06/01 14:46:27;;;;;;;0.20;0.20;;;;;;;;;;5029758;28;20351;-59
2022/06/01 14:48:54;;;;;;;0.30;0.30;;;;;;;;;;5036128;28;20591;-60
2022/06/01 14:51:23;;;;;;;0.25;0.25;;;;;;;;;;5031792;28;20216;-60
2022/06/01 14:53:52;;;;;;;0.30;0.30;;;;;;;;;;5021397;28;20300;-60
2022/06/01 14:56:19;;;;;;;0.30;0.30;;;;;;;;;;5021242;28;20652;-60
2022/06/01 14:58:46;;;;;;;0.20;0.20;;;;;;;;;;5020562;28;20216;-60
2022/06/01 15:01:16;;;;;;;0.20;0.20;;;;;;;;;;5019458;28;20215;-60
2022/06/01 15:03:44;;;;;;;0.20;0.20;;;;;;;;;;5022941;28;20679;-59
2022/06/01 15:06:11;;;;;;;0.20;0.20;;;;;;;;;;5021271;28;20205;-59
2022/06/01 15:08:39;;;;;;;0.43;0.43;;;;;;;;;;5020705;28;20208;-60
2022/06/01 15:11:08;;;;;;;0.70;0.30;;;;;;;;;;5021352;28;20737;-60
2022/06/01 15:13:35;;;;;;;0.30;0.30;;;;;;;;;;5021319;28;20268;-61
2022/06/01 15:16:03;;;;;;;0.30;0.30;;;;;;;;;;5021541;28;20220;-60
2022/06/01 15:18:31;;;;;;;0.30;0.30;;;;;;;;;;5005914;28;20743;-60
2022/06/01 15:20:59;;;;;;;2.53;0.28;;;;;;;;;;5022014;28;20360;-59
2022/06/01 15:23:26;;;;;;;0.38;0.38;;;;;;;;;;5029778;28;20301;-60
2022/06/01 15:25:53;;;;;;;0.30;0.30;;;;;;;;;;5022099;28;20209;-60
2022/06/01 15:28:21;;;;;;;0.75;0.30;;;;;;;;;;5022154;28;20221;-59
2022/06/01 15:41:46;;;;;;;0.80;0.30;;;;;;;;;;5021569;28;20257;-59
2022/06/01 15:44:15;;;;;;;0.28;0.28;;;;;;;;;;5022134;28;20268;-60
2022/06/01 15:46:42;;;;;;;0.30;0.30;;;;;;;;;;5053061;27;20212;-60
2022/06/01 15:49:11;;;;;;;0.20;0.20;;;;;;;;;;5042467;27;20208;-60
2022/06/01 15:51:39;;;;;;;0.32;0.22;;;;;;;;;;5021951;28;20216;-59
2022/06/01 15:54:07;;;;;;;0.20;0.20;;;;;;;;;;5079365;27;20199;-60
2022/06/01 15:56:34;;;;;;;0.52;0.20;;;;;;;;;;5067303;27;20208;-60
2022/06/01 15:59:01;;;;;;;0.20;0.20;;;;;;;;;;5049452;27;20355;-60
2022/06/01 16:01:30;;;;;;;0.20;0.20;;;;;;;;;;5047787;27;20213;-60
2022/06/01 16:03:58;;;;;;;0.38;0.38;;;;;;;;;;5025341;28;20956;-60
2022/06/01 16:06:25;;;;;;;1.70;0.38;;;;;;;;;;5021793;28;20212;-60
2022/06/01 16:08:52;;;;;;;0.30;0.25;;;;;;;;;;5020531;28;20247;-60
2022/06/01 16:11:22;;;;;;;0.38;0.38;;;;;;;;;;5053818;27;20219;-60